Time;durP1;ratioP1;P1;durP2;ratioP2;P2;SDS_P1;SDS_P2;PMS_P1;PMS_P2;Temp;Humidity;BMP_temperature;BMP_pressure;BME280_temperature;BME280_humidity;BME280_pressure;Samples;Min_cycle;Max_cycle;Signal;HPM_P1;HPM_P2
2022/07/29 00:01:00;;;;;;;10.48;2.50;;;42.40;34.30;;;;;;5019404;28;20431;-66
2022/07/29 00:03:27;;;;;;;14.93;2.28;;;42.10;34.00;;;;;;5005008;28;20069;-64
2022/07/29 00:05:53;;;;;;;14.68;2.60;;;41.90;34.20;;;;;;5026021;28;20079;-65
2022/07/29 00:08:20;;;;;;;6.82;2.13;;;41.80;34.40;;;;;;5023692;28;20066;-66
2022/07/29 00:10:46;;;;;;;10.70;2.42;;;41.80;34.80;;;;;;5024308;28;20104;-67
2022/07/29 00:13:12;;;;;;;9.80;2.10;;;41.90;34.60;;;;;;5028523;28;20054;-65
2022/07/29 00:15:39;;;;;;;14.63;2.60;;;41.90;34.70;;;;;;5009790;28;20534;-66
2022/07/29 00:18:05;;;;;;;9.70;2.47;;;42.10;34.80;;;;;;4983496;28;20145;-65
2022/07/29 00:20:32;;;;;;;15.52;2.50;;;41.90;34.30;;;;;;5021477;28;20406;-65
2022/07/29 00:22:58;;;;;;;13.73;2.70;;;41.90;34.50;;;;;;5024173;28;20593;-65
2022/07/29 00:25:25;;;;;;;15.23;2.45;;;41.90;34.40;;;;;;5007306;28;20149;-66
2022/07/29 00:27:51;;;;;;;14.98;2.78;;;41.90;34.20;;;;;;5043310;28;20091;-66
2022/07/29 00:30:17;;;;;;;12.13;2.20;;;41.80;34.30;;;;;;5024496;28;20638;-64
2022/07/29 00:32:44;;;;;;;8.93;2.72;;;41.80;34.50;;;;;;5022557;28;20100;-64
2022/07/29 00:37:55;;;;;;;16.17;2.85;;;41.90;34.40;;;;;;5046276;28;20554;-66
2022/07/29 00:40:21;;;;;;;12.98;2.63;;;41.90;34.30;;;;;;5030441;28;20059;-64
2022/07/29 00:42:50;;;;;;;15.75;2.58;;;41.80;34.10;;;;;;5030403;28;20104;-65
2022/07/29 00:45:17;;;;;;;11.30;2.88;;;41.70;34.30;;;;;;5048483;28;20123;-64
2022/07/29 00:47:43;;;;;;;14.77;2.63;;;41.70;34.60;;;;;;5018113;28;20090;-65
2022/07/29 00:50:12;;;;;;;10.82;2.58;;;41.60;34.90;;;;;;5051276;28;20076;-63
2022/07/29 00:52:40;;;;;;;11.20;2.78;;;41.60;34.70;;;;;;5034752;28;20071;-65
2022/07/29 00:55:09;;;;;;;13.18;2.88;;;41.60;34.60;;;;;;5017496;28;20436;-64
2022/07/29 00:57:36;;;;;;;11.88;2.97;;;41.50;34.90;;;;;;5016829;28;20082;-64
2022/07/29 01:00:09;;;;;;;18.67;3.17;;;41.60;34.90;;;;;;5018473;28;20154;-66
2022/07/29 01:02:35;;;;;;;13.45;3.40;;;41.50;34.80;;;;;;5034058;28;20527;-65
2022/07/29 01:05:03;;;;;;;8.57;2.78;;;41.40;34.70;;;;;;5033679;28;20174;-65
2022/07/29 01:07:32;;;;;;;15.32;3.17;;;41.40;35.00;;;;;;5033112;28;20081;-64
2022/07/29 01:09:59;;;;;;;13.77;2.92;;;41.30;34.70;;;;;;5032705;28;20121;-64
2022/07/29 01:12:27;;;;;;;8.27;3.13;;;41.20;34.60;;;;;;5032502;28;20068;-65
2022/07/29 01:14:55;;;;;;;12.68;2.70;;;41.10;34.80;;;;;;5016940;28;20067;-65
2022/07/29 01:17:28;;;;;;;15.88;3.20;;;41.10;34.80;;;;;;5000852;28;20457;-65
2022/07/29 01:20:17;;;;;;;13.80;2.53;;;41.00;34.60;;;;;;5031292;28;20075;-65
2022/07/29 01:23:02;;;;;;;14.32;2.70;;;41.00;34.70;;;;;;5032761;28;20091;-65
2022/07/29 01:25:57;;;;;;;9.40;2.70;;;40.90;34.60;;;;;;5050073;28;20085;-63
2022/07/29 01:28:38;;;;;;;15.43;2.67;;;40.90;34.90;;;;;;5034015;28;20550;-64
2022/07/29 01:31:06;;;;;;;12.95;2.63;;;40.80;34.70;;;;;;5034039;28;20162;-65
2022/07/29 01:33:50;;;;;;;15.88;2.90;;;40.80;34.80;;;;;;5021246;28;20526;-63
2022/07/29 01:36:39;;;;;;;9.65;2.58;;;40.70;34.70;;;;;;5012798;28;20434;-65
2022/07/29 01:39:19;;;;;;;14.68;3.78;;;40.70;34.80;;;;;;5017104;28;20092;-65
2022/07/29 01:42:15;;;;;;;10.65;3.20;;;40.60;34.60;;;;;;5013137;28;20108;-66
2022/07/29 01:44:55;;;;;;;15.63;3.17;;;40.50;34.70;;;;;;5021868;28;20115;-65
2022/07/29 01:47:40;;;;;;;17.08;2.92;;;40.50;35.40;;;;;;5026576;28;20070;-65
2022/07/29 01:50:11;;;;;;;31.63;3.42;;;40.40;36.40;;;;;;5009599;28;20195;-64
2022/07/29 01:52:41;;;;;;;31.20;3.70;;;40.30;36.90;;;;;;5010788;28;20361;-64
2022/07/29 01:55:16;;;;;;;31.45;3.20;;;40.10;37.00;;;;;;5011303;28;20072;-66
2022/07/29 01:57:45;;;;;;;23.08;3.05;;;40.00;37.40;;;;;;5006855;28;20100;-65
2022/07/29 02:00:13;;;;;;;17.35;2.63;;;39.90;37.60;;;;;;5005362;28;20104;-64
2022/07/29 02:02:43;;;;;;;39.47;2.53;;;39.80;37.10;;;;;;5002325;28;20071;-65
2022/07/29 02:05:13;;;;;;;29.73;3.80;;;39.70;37.70;;;;;;5002263;28;20101;-65
2022/07/29 02:07:43;;;;;;;23.30;2.80;;;39.60;37.70;;;;;;5004821;28;20531;-66
2022/07/29 02:10:11;;;;;;;21.95;2.65;;;39.60;37.70;;;;;;5005318;28;20121;-65
2022/07/29 02:12:40;;;;;;;23.10;2.80;;;39.40;37.70;;;;;;5005750;28;20081;-66
2022/07/29 02:15:09;;;;;;;21.25;2.70;;;39.30;37.80;;;;;;5002598;28;20082;-64
2022/07/29 02:17:55;;;;;;;23.10;2.70;;;39.20;37.70;;;;;;5002965;28;20090;-64
2022/07/29 02:20:24;;;;;;;20.00;2.50;;;39.10;38.00;;;;;;5023229;28;20132;-63
2022/07/29 02:22:52;;;;;;;19.38;2.60;;;39.00;37.40;;;;;;5005118;28;20136;-64
2022/07/29 02:25:20;;;;;;;19.92;2.30;;;38.90;37.30;;;;;;5004595;28;20102;-66
2022/07/29 02:27:48;;;;;;;15.98;2.72;;;38.90;37.50;;;;;;5009179;28;20144;-64
2022/07/29 02:30:15;;;;;;;31.42;3.22;;;38.70;38.00;;;;;;5011307;28;20528;-63
2022/07/29 02:32:43;;;;;;;19.90;2.55;;;38.70;38.70;;;;;;5012158;28;20623;-64
2022/07/29 02:35:12;;;;;;;20.15;3.03;;;38.50;38.90;;;;;;5026977;28;20074;-64
2022/07/29 02:37:39;;;;;;;24.20;2.70;;;38.50;39.00;;;;;;5026043;28;20578;-66
2022/07/29 02:40:11;;;;;;;28.48;3.10;;;38.40;39.30;;;;;;5025860;28;20081;-64
2022/07/29 02:42:41;;;;;;;25.98;2.95;;;38.30;39.50;;;;;;5027580;28;20100;-64
2022/07/29 02:45:08;;;;;;;24.95;2.85;;;38.30;40.00;;;;;;5025687;28;20154;-63
2022/07/29 02:47:48;;;;;;;32.22;2.70;;;38.20;40.50;;;;;;5021073;28;20089;-65
2022/07/29 02:50:22;;;;;;;17.73;2.33;;;38.10;40.90;;;;;;5025210;28;20160;-64
2022/07/29 03:05:21;;;;;;;18.73;2.35;;;38.00;41.20;;;;;;5107466;27;20979;-64
2022/07/29 03:08:01;;;;;;;16.52;2.50;;;37.70;43.20;;;;;;5070026;28;20488;-64
2022/07/29 03:10:28;;;;;;;11.90;2.65;;;37.60;43.30;;;;;;5103216;28;20147;-64
2022/07/29 03:12:58;;;;;;;20.20;2.53;;;37.50;43.60;;;;;;5086372;28;20088;-64
2022/07/29 03:15:26;;;;;;;12.32;2.30;;;37.40;43.60;;;;;;5102003;28;20072;-64
2022/07/29 03:17:53;;;;;;;16.63;2.20;;;37.30;43.70;;;;;;5086540;28;20117;-64
2022/07/29 03:20:20;;;;;;;21.83;2.45;;;37.20;43.80;;;;;;5086139;28;20089;-65
2022/07/29 03:22:47;;;;;;;16.40;2.65;;;37.10;43.90;;;;;;5085191;28;20137;-64
2022/07/29 03:25:15;;;;;;;10.43;2.08;;;37.10;43.80;;;;;;5068165;28;20097;-64
2022/07/29 03:27:42;;;;;;;14.77;2.80;;;37.10;43.90;;;;;;5082706;28;20095;-65
2022/07/29 03:30:10;;;;;;;18.73;2.30;;;37.00;44.00;;;;;;5086404;28;20290;-65
2022/07/29 03:32:37;;;;;;;16.65;2.10;;;37.00;44.10;;;;;;5084228;28;20084;-63
2022/07/29 03:35:05;;;;;;;13.10;2.30;;;36.90;44.10;;;;;;5087542;28;20183;-65
2022/07/29 03:37:33;;;;;;;18.33;2.67;;;36.90;44.10;;;;;;5069046;28;20132;-63
2022/07/29 03:40:02;;;;;;;20.48;2.60;;;36.80;44.00;;;;;;5087104;28;20497;-64
2022/07/29 03:42:32;;;;;;;17.27;3.13;;;36.70;43.80;;;;;;5105797;28;20073;-63
2022/07/29 03:45:12;;;;;;;21.75;3.13;;;36.70;44.00;;;;;;5087900;28;20498;-62
2022/07/29 03:47:45;;;;;;;11.65;2.17;;;36.70;43.50;;;;;;5087777;28;20159;-64
2022/07/29 03:50:13;;;;;;;25.05;3.58;;;36.60;43.60;;;;;;5071124;28;20208;-65
2022/07/29 03:52:41;;;;;;;14.48;2.53;;;36.60;43.80;;;;;;5087805;28;20096;-65
2022/07/29 03:55:09;;;;;;;17.20;2.50;;;36.50;43.90;;;;;;5065426;28;20097;-65
2022/07/29 03:57:37;;;;;;;25.10;2.53;;;36.40;43.90;;;;;;5084366;28;20077;-65
2022/07/29 04:00:05;;;;;;;20.55;2.70;;;36.40;43.90;;;;;;5066759;28;20172;-63
2022/07/29 04:02:33;;;;;;;16.50;2.72;;;36.40;44.00;;;;;;5084983;28;20080;-65
2022/07/29 04:04:59;;;;;;;10.05;2.25;;;36.40;44.10;;;;;;5056115;28;20571;-65
2022/07/29 04:07:26;;;;;;;11.05;2.10;;;36.30;44.00;;;;;;5070695;28;20081;-63
2022/07/29 04:09:52;;;;;;;10.70;2.40;;;36.30;44.10;;;;;;5068768;28;20412;-66
2022/07/29 04:12:20;;;;;;;15.85;2.30;;;36.20;44.00;;;;;;5051506;28;20099;-65
2022/07/29 04:14:47;;;;;;;13.93;2.80;;;36.20;44.30;;;;;;5053210;28;20077;-65
2022/07/29 04:17:13;;;;;;;9.13;2.15;;;36.20;44.50;;;;;;5051917;28;20097;-65
2022/07/29 04:19:39;;;;;;;17.98;1.92;;;36.20;44.90;;;;;;5035635;28;20069;-65
2022/07/29 04:22:06;;;;;;;20.63;2.75;;;36.10;45.00;;;;;;5051020;28;20563;-66
2022/07/29 04:24:32;;;;;;;11.82;2.13;;;36.10;45.30;;;;;;5054280;28;20077;-64
2022/07/29 04:26:59;;;;;;;14.45;2.03;;;36.00;45.50;;;;;;5053503;28;20069;-64
2022/07/29 04:29:25;;;;;;;14.55;2.47;;;36.00;45.60;;;;;;5052786;28;20073;-66
2022/07/29 04:31:51;;;;;;;12.93;2.43;;;36.00;45.30;;;;;;5053143;28;20425;-64
2022/07/29 04:34:18;;;;;;;22.08;2.97;;;35.90;45.60;;;;;;5053738;28;20081;-63
2022/07/29 04:36:44;;;;;;;14.32;2.63;;;35.90;45.90;;;;;;5036784;28;20167;-64
2022/07/29 04:39:11;;;;;;;15.68;3.10;;;35.90;46.00;;;;;;5052639;28;20076;-64
2022/07/29 04:41:37;;;;;;;15.60;3.15;;;35.80;46.30;;;;;;5068989;28;20119;-66
2022/07/29 04:44:05;;;;;;;17.45;2.65;;;35.80;46.20;;;;;;5069735;28;20440;-65
2022/07/29 04:46:31;;;;;;;12.95;2.65;;;35.80;46.20;;;;;;5052849;28;20076;-66
2022/07/29 04:48:58;;;;;;;18.08;2.97;;;35.70;45.80;;;;;;5052580;28;20393;-64
2022/07/29 04:51:24;;;;;;;15.95;2.95;;;35.80;46.00;;;;;;5071413;28;20498;-65
2022/07/29 04:53:51;;;;;;;19.58;2.45;;;35.70;46.20;;;;;;5053238;28;20142;-65
2022/07/29 04:56:17;;;;;;;11.93;2.45;;;35.70;46.40;;;;;;5052438;28;20126;-63
2022/07/29 04:58:43;;;;;;;15.80;3.22;;;35.60;46.60;;;;;;5034811;28;20085;-64
2022/07/29 05:01:10;;;;;;;11.13;1.95;;;35.60;47.10;;;;;;5036308;28;20608;-63
2022/07/29 05:03:36;;;;;;;12.52;2.10;;;35.50;47.40;;;;;;5068736;28;20595;-65
2022/07/29 05:06:02;;;;;;;13.50;2.28;;;35.40;47.70;;;;;;5051849;28;20199;-63
2022/07/29 05:08:29;;;;;;;9.55;2.33;;;35.40;48.20;;;;;;5035434;28;20069;-64
2022/07/29 05:10:55;;;;;;;18.38;2.30;;;35.40;48.50;;;;;;5051977;28;20073;-64
2022/07/29 05:13:22;;;;;;;12.90;2.78;;;35.40;48.80;;;;;;5048704;28;20583;-64
2022/07/29 05:15:48;;;;;;;13.52;2.50;;;35.30;48.50;;;;;;5048707;28;20176;-64
2022/07/29 05:18:15;;;;;;;16.55;3.30;;;35.20;48.60;;;;;;5049242;28;20080;-63
2022/07/29 05:20:41;;;;;;;14.35;3.60;;;35.20;48.50;;;;;;5067686;28;20080;-63
2022/07/29 05:23:08;;;;;;;15.80;3.78;;;35.10;48.10;;;;;;5050311;28;20077;-64
2022/07/29 05:25:35;;;;;;;17.48;3.95;;;35.10;47.30;;;;;;5050549;28;20147;-64
2022/07/29 05:28:01;;;;;;;26.88;4.43;;;35.00;47.30;;;;;;5067324;28;20077;-63
2022/07/29 05:30:27;;;;;;;27.80;4.65;;;35.00;46.80;;;;;;5065047;28;20073;-63
2022/07/29 05:32:54;;;;;;;28.98;4.55;;;35.00;46.40;;;;;;5069727;28;20552;-63
2022/07/29 05:35:20;;;;;;;21.80;4.38;;;35.00;46.20;;;;;;5052664;28;20516;-65
2022/07/29 05:37:46;;;;;;;19.17;4.68;;;35.00;46.00;;;;;;5051748;28;20096;-64
2022/07/29 05:40:13;;;;;;;22.80;4.32;;;35.00;46.30;;;;;;5069944;28;20077;-64
2022/07/29 05:42:39;;;;;;;19.88;4.03;;;34.90;46.30;;;;;;5046119;28;20126;-63
2022/07/29 05:45:06;;;;;;;17.20;3.72;;;34.90;46.50;;;;;;5051525;28;20076;-64
2022/07/29 05:47:32;;;;;;;15.25;3.42;;;34.90;46.90;;;;;;5050070;28;20741;-65
2022/07/29 05:49:59;;;;;;;27.48;3.72;;;34.90;47.40;;;;;;5038576;28;20077;-65
2022/07/29 05:52:25;;;;;;;18.38;3.13;;;34.90;47.80;;;;;;5051601;28;20085;-65
2022/07/29 05:54:52;;;;;;;18.15;3.17;;;34.80;48.00;;;;;;5052061;28;20084;-64
2022/07/29 05:57:20;;;;;;;15.93;2.75;;;34.80;48.40;;;;;;5069938;28;20073;-62
2022/07/29 05:59:47;;;;;;;15.85;3.00;;;34.80;48.90;;;;;;5052921;28;20172;-63
2022/07/29 06:02:14;;;;;;;25.83;3.90;;;34.70;49.30;;;;;;5033414;28;20540;-64
2022/07/29 06:04:40;;;;;;;16.75;2.95;;;34.70;49.50;;;;;;5051460;28;20479;-62
2022/07/29 06:07:07;;;;;;;12.80;3.28;;;34.70;49.90;;;;;;5034573;28;20122;-61
2022/07/29 06:09:34;;;;;;;21.35;3.30;;;34.70;50.20;;;;;;5034575;28;20901;-64
2022/07/29 06:12:01;;;;;;;10.52;3.22;;;34.70;50.40;;;;;;5034586;28;20070;-63
2022/07/29 06:14:28;;;;;;;11.25;3.40;;;34.60;50.50;;;;;;5051486;28;20073;-63
2022/07/29 06:16:55;;;;;;;14.30;3.78;;;34.60;50.40;;;;;;5069208;28;20073;-63
2022/07/29 06:19:21;;;;;;;20.55;3.50;;;34.60;50.20;;;;;;5035091;28;20083;-62
2022/07/29 06:21:48;;;;;;;17.75;4.32;;;34.50;50.50;;;;;;5050952;28;20556;-64
2022/07/29 06:24:15;;;;;;;18.98;3.42;;;34.50;50.60;;;;;;5069960;28;20084;-62
2022/07/29 06:26:42;;;;;;;11.38;3.88;;;34.40;50.80;;;;;;5069062;28;20077;-63
2022/07/29 06:29:10;;;;;;;10.80;3.13;;;34.50;50.60;;;;;;5069105;28;20086;-63
2022/07/29 06:31:37;;;;;;;10.32;3.38;;;34.50;50.40;;;;;;5050684;28;20167;-64
2022/07/29 06:34:04;;;;;;;17.45;3.25;;;34.50;49.80;;;;;;5048490;28;20516;-63
2022/07/29 06:36:30;;;;;;;19.42;3.50;;;34.50;49.70;;;;;;5033451;28;20069;-63
2022/07/29 06:38:57;;;;;;;11.25;3.53;;;34.50;50.00;;;;;;5047592;28;20077;-63
2022/07/29 06:41:23;;;;;;;14.25;3.25;;;34.40;50.20;;;;;;5049099;28;20065;-63
2022/07/29 06:43:51;;;;;;;19.45;3.95;;;34.50;50.10;;;;;;5029891;28;20142;-60
2022/07/29 06:46:18;;;;;;;16.08;3.50;;;34.50;50.40;;;;;;5046669;28;20164;-63
2022/07/29 06:48:45;;;;;;;20.35;3.50;;;34.50;50.70;;;;;;5065550;28;20077;-64
2022/07/29 06:51:12;;;;;;;15.48;3.25;;;34.50;51.20;;;;;;5064439;28;20524;-63
2022/07/29 06:53:39;;;;;;;14.90;2.80;;;34.50;51.80;;;;;;5048612;28;20101;-63
2022/07/29 06:56:10;;;;;;;22.95;3.40;;;34.50;52.40;;;;;;5031452;28;20069;-62
2022/07/29 06:58:36;;;;;;;11.68;2.92;;;34.50;52.80;;;;;;5066531;28;20082;-64
2022/07/29 07:01:04;;;;;;;13.80;2.65;;;34.40;52.60;;;;;;5065357;28;20069;-63
2022/07/29 07:03:31;;;;;;;10.27;2.70;;;34.40;52.90;;;;;;5066430;28;20174;-65
2022/07/29 07:05:58;;;;;;;10.63;3.25;;;34.30;53.10;;;;;;5045419;28;20078;-64
2022/07/29 07:08:24;;;;;;;15.45;3.17;;;34.40;53.00;;;;;;5065597;28;20114;-64
2022/07/29 07:10:51;;;;;;;14.35;3.45;;;34.30;53.10;;;;;;5068434;28;20077;-63
2022/07/29 07:13:18;;;;;;;10.98;3.00;;;34.30;53.50;;;;;;5050407;28;20107;-65
2022/07/29 07:15:48;;;;;;;8.32;2.80;;;34.30;53.70;;;;;;5032399;28;20408;-64
2022/07/29 07:18:15;;;;;;;7.43;2.45;;;34.30;54.00;;;;;;5050305;28;20076;-64
2022/07/29 07:20:42;;;;;;;12.98;2.67;;;34.30;54.10;;;;;;5033933;28;20088;-63
2022/07/29 07:23:08;;;;;;;16.55;2.90;;;34.20;53.60;;;;;;5050671;28;20077;-62
2022/07/29 07:25:35;;;;;;;13.15;2.60;;;34.20;53.20;;;;;;5049998;28;20077;-63
2022/07/29 07:28:01;;;;;;;8.18;2.40;;;34.20;53.10;;;;;;5048479;28;20091;-63
2022/07/29 07:30:28;;;;;;;13.52;2.45;;;34.10;53.00;;;;;;5067418;28;20118;-62
2022/07/29 07:32:55;;;;;;;11.18;2.92;;;34.10;52.60;;;;;;5049780;28;20534;-61
2022/07/29 07:35:21;;;;;;;9.13;2.88;;;34.10;52.60;;;;;;5048672;28;20079;-63
2022/07/29 07:37:48;;;;;;;11.85;2.72;;;34.10;52.30;;;;;;5049204;28;20085;-63
2022/07/29 07:40:14;;;;;;;14.55;3.60;;;34.10;52.60;;;;;;5052075;28;20160;-62
2022/07/29 07:42:41;;;;;;;16.08;3.28;;;34.00;53.50;;;;;;5053418;28;20081;-62
2022/07/29 07:45:11;;;;;;;12.43;2.67;;;33.90;54.40;;;;;;5052550;28;20101;-63
2022/07/29 07:47:39;;;;;;;13.98;3.85;;;33.90;55.10;;;;;;5053445;28;20089;-64
2022/07/29 07:50:11;;;;;;;16.15;3.65;;;33.80;56.10;;;;;;5052429;28;20591;-66
2022/07/29 07:52:52;;;;;;;17.13;3.67;;;33.80;57.30;;;;;;5053368;28;20546;-62
2022/07/29 07:55:19;;;;;;;16.00;3.58;;;33.70;57.80;;;;;;5052443;28;20556;-64
2022/07/29 07:57:46;;;;;;;11.30;2.65;;;33.70;57.80;;;;;;5052145;28;20444;-63
2022/07/29 08:00:18;;;;;;;12.75;2.17;;;33.60;57.60;;;;;;5053492;28;20069;-64
2022/07/29 08:02:45;;;;;;;9.23;2.67;;;33.60;58.00;;;;;;5052865;28;20567;-63
2022/07/29 08:05:16;;;;;;;10.75;2.13;;;33.50;58.20;;;;;;5070540;28;20113;-64
2022/07/29 08:07:44;;;;;;;10.13;2.42;;;33.40;58.40;;;;;;5036146;28;20417;-63
2022/07/29 08:10:11;;;;;;;8.93;2.25;;;33.50;58.40;;;;;;5052763;28;20143;-64
2022/07/29 08:12:37;;;;;;;12.93;2.65;;;33.40;58.50;;;;;;5052339;28;20179;-64
2022/07/29 08:15:04;;;;;;;12.75;3.05;;;33.40;58.20;;;;;;5052808;28;20084;-64
2022/07/29 08:17:30;;;;;;;8.75;2.50;;;33.50;58.30;;;;;;5052612;28;20073;-63
2022/07/29 08:19:57;;;;;;;11.77;2.60;;;33.40;57.80;;;;;;5052177;28;20567;-64
2022/07/29 08:22:23;;;;;;;6.07;2.28;;;33.30;57.50;;;;;;5036764;28;20511;-64
2022/07/29 08:24:53;;;;;;;12.55;2.67;;;33.30;57.40;;;;;;5053880;28;20527;-64
2022/07/29 08:27:20;;;;;;;12.43;2.80;;;33.40;57.00;;;;;;5053385;28;20073;-64
2022/07/29 08:29:46;;;;;;;12.13;2.60;;;33.30;56.50;;;;;;5052226;28;20499;-65
2022/07/29 08:32:13;;;;;;;9.20;2.42;;;33.30;56.50;;;;;;5052193;28;20077;-63
2022/07/29 08:34:39;;;;;;;9.55;2.53;;;33.20;56.50;;;;;;5052413;28;20512;-65
2022/07/29 08:37:06;;;;;;;11.98;2.58;;;33.20;56.60;;;;;;5052614;28;20126;-67
2022/07/29 08:39:32;;;;;;;11.45;2.50;;;33.20;56.60;;;;;;5052336;28;20156;-63
2022/07/29 08:41:59;;;;;;;10.68;2.17;;;33.20;56.40;;;;;;5052007;28;20143;-63
2022/07/29 08:44:26;;;;;;;6.55;2.50;;;33.10;56.30;;;;;;5035512;28;20166;-63
2022/07/29 08:46:53;;;;;;;9.07;2.50;;;33.10;56.30;;;;;;5051860;28;20499;-64
2022/07/29 08:49:19;;;;;;;11.25;2.20;;;33.00;57.20;;;;;;5052518;28;20073;-64
2022/07/29 08:51:46;;;;;;;11.32;2.40;;;33.00;56.60;;;;;;5053310;28;20073;-64
2022/07/29 08:54:17;;;;;;;11.18;2.40;;;33.00;56.40;;;;;;5034804;28;20124;-64
2022/07/29 08:56:44;;;;;;;9.57;2.42;;;33.00;56.00;;;;;;5068681;28;20524;-62
2022/07/29 08:59:12;;;;;;;11.82;3.25;;;33.00;55.70;;;;;;5051665;28;20467;-64
2022/07/29 09:01:40;;;;;;;20.48;3.00;;;33.00;56.00;;;;;;5069702;28;20559;-65
2022/07/29 09:04:11;;;;;;;13.43;3.60;;;33.00;57.40;;;;;;5069582;28;20578;-64
2022/07/29 09:06:45;;;;;;;15.38;3.38;;;32.90;55.90;;;;;;5052119;28;20134;-64
2022/07/29 09:09:13;;;;;;;6.85;2.65;;;32.90;55.50;;;;;;5068484;28;20081;-63
2022/07/29 09:11:40;;;;;;;11.00;2.92;;;32.90;55.20;;;;;;5049885;28;20088;-64
2022/07/29 09:14:07;;;;;;;12.13;2.60;;;32.90;55.20;;;;;;5051389;28;20093;-64
2022/07/29 09:17:00;;;;;;;10.88;2.33;;;32.90;55.40;;;;;;5051906;28;20081;-64
2022/07/29 09:19:28;;;;;;;12.93;2.20;;;32.90;55.60;;;;;;5065913;28;20093;-64
2022/07/29 09:21:58;;;;;;;11.10;2.20;;;32.90;55.60;;;;;;5051298;28;20516;-63
2022/07/29 09:24:44;;;;;;;9.88;2.10;;;32.90;55.30;;;;;;5069789;28;20069;-65
2022/07/29 09:27:28;;;;;;;16.88;2.35;;;32.90;54.60;;;;;;5051756;28;20077;-65
2022/07/29 09:30:01;;;;;;;9.90;2.00;;;33.00;54.40;;;;;;5051712;28;21053;-63
2022/07/29 09:32:30;;;;;;;10.30;2.35;;;32.90;53.90;;;;;;5051425;28;20111;-65
2022/07/29 09:35:16;;;;;;;14.18;2.55;;;32.90;53.80;;;;;;5051656;28;20092;-64
2022/07/29 09:37:44;;;;;;;7.82;2.38;;;32.90;53.40;;;;;;5051994;28;20076;-63
2022/07/29 09:40:16;;;;;;;11.35;2.60;;;32.90;53.20;;;;;;5050882;28;20076;-63
2022/07/29 09:42:42;;;;;;;6.47;2.35;;;32.90;53.40;;;;;;5068528;28;20095;-64
2022/07/29 09:45:09;;;;;;;11.27;2.33;;;32.90;53.40;;;;;;5050505;28;20250;-65
2022/07/29 09:47:48;;;;;;;5.53;2.25;;;32.80;53.20;;;;;;5049713;28;20073;-66
2022/07/29 09:50:15;;;;;;;10.18;2.33;;;32.90;53.10;;;;;;5050746;28;20077;-66
2022/07/29 09:52:50;;;;;;;8.25;2.60;;;32.80;53.00;;;;;;5051432;28;20895;-65
2022/07/29 09:55:17;;;;;;;6.53;2.10;;;32.90;52.60;;;;;;5066963;28;20137;-64
2022/07/29 09:57:44;;;;;;;10.30;2.63;;;32.80;51.80;;;;;;5051040;28;20117;-64
2022/07/29 10:00:14;;;;;;;8.55;2.20;;;32.90;51.80;;;;;;5050033;28;20069;-63
2022/07/29 10:02:45;;;;;;;10.73;2.28;;;32.90;51.80;;;;;;5050848;28;20179;-63
2022/07/29 10:05:24;;;;;;;9.68;2.40;;;32.90;51.60;;;;;;5068251;28;20108;-64
2022/07/29 10:07:52;;;;;;;6.95;2.03;;;32.80;51.50;;;;;;5049880;28;20076;-65
2022/07/29 10:10:23;;;;;;;9.55;2.17;;;32.90;51.40;;;;;;5051332;28;20158;-64
2022/07/29 10:12:59;;;;;;;5.10;1.73;;;32.90;51.10;;;;;;5050007;28;20093;-63
2022/07/29 10:15:27;;;;;;;8.07;1.90;;;32.80;50.70;;;;;;5051073;28;20522;-64
2022/07/29 10:17:55;;;;;;;8.52;2.42;;;32.90;50.80;;;;;;5052035;28;20097;-63
2022/07/29 10:20:23;;;;;;;8.55;3.03;;;32.80;50.60;;;;;;5050390;28;20073;-63
2022/07/29 10:22:51;;;;;;;6.57;2.85;;;32.80;50.70;;;;;;5053908;28;20408;-64
2022/07/29 10:25:18;;;;;;;9.38;2.70;;;32.80;50.80;;;;;;5050856;28;20093;-65
2022/07/29 10:27:46;;;;;;;8.93;2.25;;;32.90;51.10;;;;;;5033201;28;20073;-64
2022/07/29 10:30:15;;;;;;;12.65;2.83;;;32.80;51.20;;;;;;5050225;28;20559;-63
2022/07/29 10:33:00;;;;;;;8.00;2.72;;;32.90;52.00;;;;;;5050610;28;20093;-66
2022/07/29 10:36:05;;;;;;;8.32;2.15;;;32.90;51.20;;;;;;5067614;28;20583;-64
2022/07/29 10:38:53;;;;;;;8.48;2.03;;;32.90;50.90;;;;;;5045776;28;20122;-65
2022/07/29 10:41:57;;;;;;;9.88;2.10;;;32.90;50.30;;;;;;5033427;28;20126;-62
2022/07/29 10:44:25;;;;;;;5.85;1.60;;;32.80;49.70;;;;;;5050244;28;20430;-63
2022/07/29 10:46:53;;;;;;;6.97;2.03;;;32.70;49.10;;;;;;5032855;28;20164;-63
2022/07/29 10:49:25;;;;;;;4.82;1.33;;;32.70;49.10;;;;;;5050288;28;20069;-62
2022/07/29 10:51:55;;;;;;;6.38;1.63;;;32.60;49.00;;;;;;5052382;28;20065;-62
2022/07/29 10:54:45;;;;;;;4.70;1.50;;;32.60;48.70;;;;;;5050098;28;20516;-64
2022/07/29 10:57:31;;;;;;;6.82;1.40;;;32.70;48.40;;;;;;5068388;28;20077;-63
2022/07/29 11:00:10;;;;;;;4.47;1.20;;;32.70;47.50;;;;;;5033808;28;20084;-63
2022/07/29 11:02:39;;;;;;;5.03;1.80;;;32.70;46.90;;;;;;5044912;28;20119;-63
2022/07/29 11:05:08;;;;;;;4.10;1.38;;;32.60;46.50;;;;;;5050151;28;20162;-64
2022/07/29 11:07:36;;;;;;;8.40;1.50;;;32.70;46.20;;;;;;5049559;28;20677;-64
2022/07/29 11:10:15;;;;;;;5.45;1.40;;;32.70;45.80;;;;;;5049888;28;20076;-63
2022/07/29 11:12:41;;;;;;;3.90;1.15;;;32.70;45.40;;;;;;5049361;28;20543;-65
2022/07/29 11:15:16;;;;;;;6.85;1.70;;;32.70;45.10;;;;;;5052671;28;20080;-64
2022/07/29 11:17:58;;;;;;;10.77;1.73;;;32.70;44.60;;;;;;5053390;28;20134;-63
2022/07/29 11:20:45;;;;;;;6.47;1.70;;;32.80;44.20;;;;;;5053286;28;20072;-63
2022/07/29 11:23:28;;;;;;;4.18;1.77;;;32.80;44.10;;;;;;5052322;28;20092;-64
2022/07/29 11:26:23;;;;;;;3.33;1.58;;;32.80;44.10;;;;;;5071987;28;20080;-64
2022/07/29 11:29:24;;;;;;;6.95;1.63;;;32.80;43.50;;;;;;5036436;28;20092;-63
2022/07/29 11:31:55;;;;;;;8.85;1.65;;;32.80;43.20;;;;;;5070009;28;20073;-64
2022/07/29 11:34:36;;;;;;;7.18;1.65;;;32.80;43.20;;;;;;5053323;28;20108;-64
2022/07/29 11:37:09;;;;;;;6.45;1.85;;;32.80;43.10;;;;;;5054514;28;20073;-63
2022/07/29 11:39:38;;;;;;;7.78;1.52;;;32.80;42.70;;;;;;5053318;28;20532;-65
2022/07/29 11:42:23;;;;;;;4.25;1.40;;;32.70;42.70;;;;;;5053353;28;20069;-64
2022/07/29 11:44:56;;;;;;;7.47;1.52;;;32.70;42.90;;;;;;5070255;28;20065;-64
2022/07/29 11:47:24;;;;;;;8.15;1.55;;;32.70;42.90;;;;;;5053194;28;20482;-65
2022/07/29 11:49:51;;;;;;;8.70;1.50;;;32.70;43.00;;;;;;5035018;28;20089;-66
2022/07/29 11:52:19;;;;;;;6.75;1.70;;;32.70;43.10;;;;;;5052470;28;20191;-64
2022/07/29 11:54:48;;;;;;;5.15;1.55;;;32.70;43.30;;;;;;5051338;28;20096;-63
2022/07/29 11:57:19;;;;;;;3.42;1.30;;;32.70;43.80;;;;;;5052980;28;20098;-64
2022/07/29 11:59:47;;;;;;;10.43;1.45;;;32.70;44.10;;;;;;5052848;28;20065;-64
2022/07/29 12:02:15;;;;;;;7.47;1.80;;;32.70;44.60;;;;;;5052691;28;20071;-64
2022/07/29 12:04:59;;;;;;;6.63;1.77;;;32.70;45.00;;;;;;5048512;28;20122;-64
2022/07/29 12:07:33;;;;;;;9.38;1.88;;;32.70;46.00;;;;;;5049539;28;20095;-64
2022/07/29 12:10:00;;;;;;;7.82;2.05;;;32.70;46.60;;;;;;5049497;28;20080;-63
2022/07/29 12:12:27;;;;;;;6.95;1.50;;;32.70;47.30;;;;;;5049332;28;20125;-64
2022/07/29 12:14:55;;;;;;;7.35;1.83;;;32.70;48.50;;;;;;5049294;28;20073;-64
2022/07/29 12:17:32;;;;;;;9.68;1.80;;;32.70;48.70;;;;;;5033251;28;20069;-64
2022/07/29 12:20:04;;;;;;;9.50;1.90;;;32.70;49.50;;;;;;5033428;28;20081;-64
2022/07/29 12:22:40;;;;;;;14.55;2.70;;;32.70;51.00;;;;;;5050950;28;20073;-64
2022/07/29 12:25:09;;;;;;;12.68;2.10;;;32.60;51.40;;;;;;5065794;28;20085;-63
2022/07/29 12:27:38;;;;;;;10.63;2.22;;;32.60;52.40;;;;;;5033256;28;20448;-66
2022/07/29 12:30:07;;;;;;;7.57;2.35;;;32.60;53.50;;;;;;5047880;28;20536;-64
2022/07/29 12:32:39;;;;;;;10.77;2.50;;;32.60;54.30;;;;;;5049256;28;20121;-65
2022/07/29 12:35:09;;;;;;;5.60;1.95;;;32.60;55.40;;;;;;5050299;28;20070;-65
2022/07/29 12:37:36;;;;;;;9.63;2.17;;;32.50;55.70;;;;;;5049067;28;20070;-65
2022/07/29 12:40:05;;;;;;;12.50;2.90;;;32.50;56.00;;;;;;5050182;28;20158;-65
2022/07/29 12:42:32;;;;;;;9.98;2.08;;;32.50;56.50;;;;;;5050897;28;20097;-64
2022/07/29 12:44:58;;;;;;;11.25;2.55;;;32.50;57.00;;;;;;5048307;28;20519;-64
2022/07/29 12:47:25;;;;;;;6.55;1.75;;;32.50;57.70;;;;;;5048967;28;20097;-65
2022/07/29 12:50:07;;;;;;;11.73;2.80;;;32.50;58.00;;;;;;5048851;28;20123;-64
2022/07/29 12:52:34;;;;;;;15.73;2.47;;;32.40;59.70;;;;;;5047991;28;20089;-64
2022/07/29 12:55:01;;;;;;;12.85;3.28;;;32.40;60.30;;;;;;5065921;28;20187;-64
2022/07/29 12:57:28;;;;;;;14.52;3.33;;;32.30;61.10;;;;;;5046872;28;20092;-64
2022/07/29 13:00:10;;;;;;;12.40;2.40;;;32.30;61.60;;;;;;5048441;28;20533;-64
2022/07/29 13:02:38;;;;;;;10.40;3.30;;;32.30;62.00;;;;;;5031976;28;20097;-63
2022/07/29 13:05:06;;;;;;;11.20;2.90;;;32.30;62.80;;;;;;5068086;28;20112;-63
2022/07/29 13:07:36;;;;;;;21.15;4.10;;;32.20;63.60;;;;;;5034864;28;20134;-65
2022/07/29 13:10:17;;;;;;;24.08;3.95;;;32.20;65.00;;;;;;5051563;28;20165;-64